Time;durP1;ratioP1;P1;durP2;ratioP2;P2;SDS_P1;SDS_P2;PMS_P1;PMS_P2;Temp;Humidity;BMP_temperature;BMP_pressure;BME280_temperature;BME280_humidity;BME280_pressure;Samples;Min_cycle;Max_cycle;Signal;HPM_P1;HPM_P2
2021/03/31 00:05:01;;;;;;;8.20;5.80;;;12.90;24.10;;;;;;10394981;28;20313;-70
2021/03/31 00:10:13;;;;;;;8.07;5.07;;;12.90;24.40;;;;;;10392396;28;20686;-70
2021/03/31 00:15:16;;;;;;;7.10;5.20;;;12.70;24.90;;;;;;10388112;28;20234;-70
2021/03/31 00:20:21;;;;;;;6.30;5.03;;;12.50;24.20;;;;;;10401509;28;20698;-70
2021/03/31 00:25:23;;;;;;;5.80;4.57;;;12.30;24.40;;;;;;10390417;28;20245;-70
2021/03/31 00:30:26;;;;;;;6.20;4.70;;;12.10;24.30;;;;;;10394573;28;20906;-69
2021/03/31 00:35:29;;;;;;;6.20;4.47;;;12.00;24.60;;;;;;10408939;28;20250;-69
2021/03/31 00:40:36;;;;;;;4.73;3.63;;;12.00;24.80;;;;;;10399456;28;20234;-70
2021/03/31 00:45:40;;;;;;;5.00;4.50;;;11.90;25.20;;;;;;10398185;28;20972;-69
2021/03/31 00:51:03;;;;;;;7.23;4.37;;;11.90;24.80;;;;;;10392918;28;20228;-69
2021/03/31 00:56:06;;;;;;;3.90;3.50;;;11.90;24.90;;;;;;10394341;28;20233;-70
2021/03/31 01:01:10;;;;;;;4.57;4.00;;;11.90;24.70;;;;;;10398344;28;20329;-70
2021/03/31 01:06:13;;;;;;;4.67;4.23;;;11.80;24.60;;;;;;10401472;28;20237;-69
2021/03/31 01:11:24;;;;;;;6.53;4.50;;;11.80;24.90;;;;;;10391245;28;20217;-69
2021/03/31 01:16:36;;;;;;;5.63;4.40;;;11.70;25.50;;;;;;10395805;28;20230;-69
2021/03/31 01:22:13;;;;;;;6.47;4.50;;;11.70;25.70;;;;;;10394343;28;20237;-69
2021/03/31 01:27:19;;;;;;;6.13;4.60;;;11.60;25.90;;;;;;10400225;28;20702;-69
2021/03/31 01:32:47;;;;;;;5.47;4.10;;;11.50;25.20;;;;;;10392886;28;20241;-69
2021/03/31 01:37:52;;;;;;;5.43;4.87;;;11.40;25.80;;;;;;10394402;28;20225;-69
2021/03/31 01:42:56;;;;;;;5.33;4.20;;;11.30;25.30;;;;;;10390567;28;20240;-69
2021/03/31 01:48:00;;;;;;;4.67;4.07;;;11.30;25.40;;;;;;10391798;28;20229;-69
2021/03/31 01:53:04;;;;;;;5.33;4.83;;;11.30;26.00;;;;;;10389296;28;20229;-69
2021/03/31 01:58:08;;;;;;;5.57;4.93;;;11.30;25.50;;;;;;10399150;28;20222;-69
2021/03/31 02:03:13;;;;;;;6.17;4.87;;;11.10;25.10;;;;;;10384870;28;20227;-69
2021/03/31 02:08:18;;;;;;;5.13;4.53;;;10.90;25.10;;;;;;10396213;28;20232;-69
2021/03/31 02:13:21;;;;;;;7.30;5.27;;;10.70;25.40;;;;;;10390150;28;20227;-69
2021/03/31 02:18:26;;;;;;;4.80;4.30;;;10.60;25.30;;;;;;10392519;28;20222;-69
2021/03/31 02:23:30;;;;;;;8.87;4.57;;;10.50;25.70;;;;;;10393850;28;20603;-69
2021/03/31 02:28:32;;;;;;;5.73;4.40;;;10.50;25.80;;;;;;10396314;28;20240;-69
2021/03/31 02:33:35;;;;;;;5.37;4.87;;;10.50;25.80;;;;;;10390930;28;20320;-69
2021/03/31 02:38:38;;;;;;;6.37;4.60;;;10.50;26.00;;;;;;10391022;28;20229;-69
2021/03/31 02:43:46;;;;;;;5.43;4.93;;;10.50;26.00;;;;;;10396914;28;20248;-69
2021/03/31 02:48:51;;;;;;;4.80;4.30;;;10.50;26.20;;;;;;10389774;28;20222;-69
2021/03/31 02:53:54;;;;;;;5.40;4.10;;;10.50;25.90;;;;;;10388822;28;20714;-69
2021/03/31 02:58:58;;;;;;;6.23;4.40;;;10.50;26.10;;;;;;10394368;28;20226;-69
2021/03/31 03:04:00;;;;;;;5.57;3.93;;;10.40;26.00;;;;;;10397607;28;20234;-69
2021/03/31 03:09:06;;;;;;;5.63;4.60;;;10.40;25.90;;;;;;10391311;28;20224;-69
2021/03/31 03:14:09;;;;;;;5.23;4.23;;;10.30;26.20;;;;;;10399939;28;20777;-69
2021/03/31 03:19:12;;;;;;;6.60;5.03;;;10.20;25.70;;;;;;10389217;28;20324;-69
2021/03/31 03:24:16;;;;;;;5.30;4.80;;;10.10;26.00;;;;;;10387915;28;20320;-69
2021/03/31 03:29:20;;;;;;;5.50;5.00;;;10.00;26.00;;;;;;10387691;28;20225;-69
2021/03/31 03:34:22;;;;;;;9.10;4.70;;;9.90;26.70;;;;;;10396062;28;20312;-69
2021/03/31 03:39:25;;;;;;;5.80;5.23;;;9.80;26.80;;;;;;10386172;28;20356;-69
2021/03/31 03:44:30;;;;;;;4.43;4.03;;;9.70;27.10;;;;;;10395269;28;20239;-69
2021/03/31 03:49:37;;;;;;;6.43;5.30;;;9.70;27.00;;;;;;10395816;28;20232;-69
2021/03/31 03:54:40;;;;;;;6.03;4.67;;;9.70;27.60;;;;;;10399504;28;20225;-69
2021/03/31 03:59:42;;;;;;;5.83;4.90;;;9.80;27.30;;;;;;10398506;28;20605;-72
2021/03/31 04:04:45;;;;;;;6.97;5.10;;;9.80;27.10;;;;;;10403309;28;20240;-72
2021/03/31 04:09:52;;;;;;;6.07;5.47;;;9.70;27.10;;;;;;10390000;28;20213;-72
2021/03/31 04:14:55;;;;;;;4.50;4.00;;;9.70;27.20;;;;;;10396664;28;20321;-72
2021/03/31 04:19:59;;;;;;;4.40;4.00;;;9.50;27.00;;;;;;10393466;28;20232;-73
2021/03/31 04:25:03;;;;;;;6.07;5.10;;;9.40;27.30;;;;;;10394433;28;20309;-72
2021/03/31 04:30:07;;;;;;;5.90;5.27;;;9.30;27.50;;;;;;10400288;28;20308;-71
2021/03/31 04:35:10;;;;;;;6.07;4.60;;;9.30;27.60;;;;;;10399033;28;20226;-71
2021/03/31 04:40:16;;;;;;;4.40;3.97;;;9.30;27.50;;;;;;10388316;28;20232;-71
2021/03/31 04:45:19;;;;;;;7.20;4.87;;;9.30;27.90;;;;;;10395965;28;20232;-71
2021/03/31 04:50:21;;;;;;;6.60;4.63;;;9.20;27.50;;;;;;10394732;28;20262;-71
2021/03/31 04:55:24;;;;;;;5.90;4.47;;;9.10;27.40;;;;;;10391461;28;20229;-71
2021/03/31 05:00:27;;;;;;;6.57;5.60;;;9.00;27.80;;;;;;10399116;28;20229;-71
2021/03/31 05:05:29;;;;;;;6.03;5.37;;;8.80;27.90;;;;;;10392670;28;21493;-71
2021/03/31 05:10:32;;;;;;;5.37;4.87;;;8.70;27.90;;;;;;10397260;28;20660;-71
2021/03/31 05:15:34;;;;;;;6.67;4.93;;;8.60;28.20;;;;;;10399947;28;20236;-71
2021/03/31 05:20:37;;;;;;;8.07;5.23;;;8.50;28.10;;;;;;10401958;28;20248;-70
2021/03/31 05:25:40;;;;;;;6.10;4.40;;;8.50;28.10;;;;;;10391761;28;20239;-71
2021/03/31 05:30:43;;;;;;;6.60;4.53;;;8.50;28.20;;;;;;10393935;28;20233;-71
2021/03/31 05:35:45;;;;;;;5.53;4.90;;;8.50;28.10;;;;;;10398304;28;20261;-71
2021/03/31 05:40:49;;;;;;;5.83;5.03;;;8.60;28.30;;;;;;10389343;28;20233;-71
2021/03/31 05:45:54;;;;;;;8.57;6.00;;;8.60;28.80;;;;;;10394197;28;20229;-71
2021/03/31 05:50:59;;;;;;;9.13;5.80;;;8.70;28.70;;;;;;10398089;28;20591;-71
2021/03/31 05:56:04;;;;;;;7.43;5.93;;;8.70;29.00;;;;;;10392766;28;20219;-71
2021/03/31 06:01:07;;;;;;;8.00;5.87;;;8.80;28.90;;;;;;10393109;28;20522;-71
2021/03/31 06:06:09;;;;;;;7.97;6.50;;;8.80;28.70;;;;;;10396704;28;20264;-71
2021/03/31 06:11:15;;;;;;;10.33;6.23;;;8.80;28.80;;;;;;10394803;28;20233;-71
2021/03/31 06:16:28;;;;;;;10.80;6.70;;;8.80;29.10;;;;;;10392441;28;20578;-71
2021/03/31 06:21:31;;;;;;;10.07;7.10;;;8.90;30.70;;;;;;10392437;28;20747;-70
2021/03/31 06:26:39;;;;;;;14.10;9.23;;;9.00;29.30;;;;;;10392376;28;20249;-70
2021/03/31 06:31:42;;;;;;;13.27;9.63;;;9.00;29.60;;;;;;10398922;28;20225;-70
2021/03/31 06:36:48;;;;;;;10.60;7.57;;;9.20;29.60;;;;;;10390583;28;20226;-70
2021/03/31 06:41:56;;;;;;;12.30;7.17;;;9.30;29.90;;;;;;10393270;28;20234;-72
2021/03/31 06:47:04;;;;;;;8.70;6.80;;;9.40;30.00;;;;;;10392537;28;20702;-71
2021/03/31 06:52:09;;;;;;;7.87;6.47;;;9.50;29.80;;;;;;10391966;28;20229;-70
2021/03/31 06:57:14;;;;;;;8.60;6.93;;;9.60;30.10;;;;;;10386425;28;20594;-69
2021/03/31 07:02:16;;;;;;;11.07;7.07;;;9.70;30.20;;;;;;10388352;28;20231;-70
2021/03/31 07:07:30;;;;;;;10.63;7.53;;;9.90;29.90;;;;;;10389541;28;20222;-69
2021/03/31 07:12:42;;;;;;;11.90;8.53;;;10.00;30.70;;;;;;10389699;28;20225;-69
2021/03/31 07:17:50;;;;;;;9.97;8.17;;;10.10;30.00;;;;;;10387676;28;20701;-69
2021/03/31 07:22:53;;;;;;;12.57;8.40;;;10.30;29.40;;;;;;10404753;28;20237;-71
2021/03/31 07:27:58;;;;;;;8.47;7.57;;;10.40;29.40;;;;;;10401048;28;20239;-71
2021/03/31 07:33:02;;;;;;;7.43;6.67;;;10.60;30.00;;;;;;10396757;28;20229;-71
2021/03/31 07:38:05;;;;;;;10.90;7.53;;;10.80;29.60;;;;;;10399851;28;20317;-71
2021/03/31 07:43:11;;;;;;;8.13;7.33;;;11.10;29.50;;;;;;10407159;28;20748;-71
2021/03/31 07:48:14;;;;;;;13.80;9.10;;;11.30;29.90;;;;;;10392369;28;20230;-71
2021/03/31 07:53:16;;;;;;;11.53;9.13;;;11.50;30.00;;;;;;10399908;28;20226;-71
2021/03/31 07:58:28;;;;;;;10.20;8.70;;;11.80;29.90;;;;;;10398025;28;20218;-71
2021/03/31 08:03:31;;;;;;;9.83;8.57;;;12.20;30.30;;;;;;10398874;28;20243;-71
2021/03/31 08:08:35;;;;;;;16.90;9.30;;;12.50;30.00;;;;;;10396992;28;20588;-69
2021/03/31 08:13:41;;;;;;;9.97;8.47;;;12.80;30.20;;;;;;10399929;28;20604;-69
2021/03/31 08:18:43;;;;;;;12.40;8.80;;;13.20;30.50;;;;;;10402385;28;20320;-70
2021/03/31 08:23:48;;;;;;;11.37;8.33;;;13.60;30.40;;;;;;10404217;28;20676;-69
2021/03/31 08:28:51;;;;;;;10.83;8.83;;;14.00;30.60;;;;;;10403817;28;20225;-70
2021/03/31 08:33:54;;;;;;;9.73;8.70;;;14.40;30.30;;;;;;10390925;28;20312;-69
2021/03/31 08:38:59;;;;;;;10.17;8.63;;;14.80;30.00;;;;;;10400710;28;20721;-69
2021/03/31 08:44:14;;;;;;;9.77;8.60;;;15.20;30.00;;;;;;10391257;28;21020;-69
2021/03/31 08:49:24;;;;;;;10.50;8.43;;;15.60;30.00;;;;;;10393161;28;20332;-71
2021/03/31 08:54:33;;;;;;;14.13;9.10;;;16.00;29.70;;;;;;10394212;28;20229;-71
2021/03/31 08:59:39;;;;;;;9.33;8.43;;;16.40;29.40;;;;;;10393204;28;20575;-71
2021/03/31 09:04:42;;;;;;;10.07;9.03;;;16.70;29.40;;;;;;10395604;28;20950;-71
2021/03/31 09:09:45;;;;;;;9.93;8.93;;;17.10;29.10;;;;;;10389781;28;20213;-71
2021/03/31 09:14:54;;;;;;;9.53;8.63;;;17.40;28.80;;;;;;10401559;28;20218;-71
2021/03/31 09:19:58;;;;;;;10.03;8.53;;;17.80;28.90;;;;;;10384069;28;20218;-71
2021/03/31 09:25:03;;;;;;;10.53;9.17;;;18.10;28.80;;;;;;10395958;28;20321;-71
2021/03/31 09:30:12;;;;;;;10.00;9.00;;;18.40;28.20;;;;;;10386344;28;20214;-71
2021/03/31 09:35:18;;;;;;;11.60;9.10;;;18.70;28.20;;;;;;10386266;28;20736;-71
2021/03/31 09:40:23;;;;;;;11.77;9.17;;;19.00;28.10;;;;;;10387391;28;20728;-71
2021/03/31 09:45:29;;;;;;;11.40;9.73;;;19.20;28.10;;;;;;10388220;28;20550;-71
2021/03/31 09:50:33;;;;;;;11.03;9.00;;;19.50;27.40;;;;;;10390333;28;20775;-71
2021/03/31 09:55:38;;;;;;;9.87;8.37;;;19.70;27.40;;;;;;10391719;28;21240;-70
2021/03/31 10:00:41;;;;;;;10.53;8.90;;;19.90;27.20;;;;;;10389509;28;20230;-69
2021/03/31 10:05:44;;;;;;;10.43;8.20;;;20.20;27.20;;;;;;10391262;28;20261;-69
2021/03/31 10:10:47;;;;;;;10.13;8.27;;;20.40;26.60;;;;;;10394429;28;20669;-70
2021/03/31 10:15:57;;;;;;;8.93;7.97;;;20.50;26.20;;;;;;10390942;28;20235;-70
2021/03/31 10:21:02;;;;;;;8.53;7.63;;;20.70;25.90;;;;;;10388168;28;20225;-70
2021/03/31 10:26:18;;;;;;;8.60;7.10;;;20.90;25.90;;;;;;10391477;28;20230;-68
2021/03/31 10:31:28;;;;;;;7.90;6.47;;;21.10;25.30;;;;;;10389396;28;20229;-69
2021/03/31 10:36:53;;;;;;;7.43;6.67;;;21.40;25.60;;;;;;10387162;28;20222;-69
2021/03/31 10:47:19;;;;;;;7.23;6.53;;;21.90;25.40;;;;;;10381530;28;20312;-69
2021/03/31 10:52:23;;;;;;;8.33;7.30;;;22.20;25.40;;;;;;10383715;28;20237;-69
2021/03/31 10:57:25;;;;;;;7.97;6.63;;;22.30;24.90;;;;;;10392853;28;20222;-69
2021/03/31 11:02:28;;;;;;;7.60;6.73;;;22.50;24.60;;;;;;10393488;28;20236;-69
2021/03/31 11:07:31;;;;;;;7.77;6.37;;;22.60;24.40;;;;;;10391544;28;20229;-71
2021/03/31 11:12:33;;;;;;;8.23;6.43;;;22.80;24.20;;;;;;10392899;28;20304;-71
2021/03/31 11:17:41;;;;;;;8.20;7.30;;;22.90;24.10;;;;;;10394113;28;20336;-69
2021/03/31 11:28:04;;;;;;;7.70;6.57;;;23.30;23.80;;;;;;10387640;28;20733;-69
2021/03/31 11:33:07;;;;;;;8.23;6.43;;;23.40;23.20;;;;;;10393198;28;20269;-71
2021/03/31 11:38:10;;;;;;;6.00;5.40;;;23.50;22.90;;;;;;10389218;28;20229;-69
2021/03/31 11:43:14;;;;;;;7.57;5.40;;;23.60;22.50;;;;;;10380052;28;20244;-69
2021/03/31 11:48:17;;;;;;;7.77;5.50;;;23.60;22.30;;;;;;10384419;28;20221;-69
2021/03/31 11:53:19;;;;;;;7.23;6.20;;;23.60;22.00;;;;;;10388882;28;20230;-69
2021/03/31 11:58:21;;;;;;;6.20;5.60;;;23.60;22.50;;;;;;10392359;28;20238;-68
2021/03/31 12:03:25;;;;;;;8.40;5.83;;;23.70;22.30;;;;;;10393361;28;20650;-68
2021/03/31 12:08:27;;;;;;;6.20;5.60;;;23.80;21.70;;;;;;10398764;28;20654;-69
2021/03/31 12:13:30;;;;;;;6.77;6.07;;;23.90;22.10;;;;;;10395944;28;20241;-69
2021/03/31 13:48:02;;;;;;;6.40;5.43;;;24.70;18.60;;;;;;10399167;28;20221;-69
2021/03/31 13:53:24;;;;;;;7.50;5.97;;;24.80;19.30;;;;;;10405580;28;20233;-69
2021/03/31 13:58:35;;;;;;;7.50;5.90;;;24.90;19.30;;;;;;10410067;28;20230;-70
2021/03/31 14:03:38;;;;;;;7.20;6.20;;;24.90;19.20;;;;;;10405015;28;20641;-72
2021/03/31 14:08:40;;;;;;;7.87;6.03;;;25.00;19.00;;;;;;10404431;28;20308;-71
2021/03/31 14:14:04;;;;;;;7.77;6.03;;;25.00;19.00;;;;;;10407650;28;20237;-71
2021/03/31 14:19:30;;;;;;;7.00;5.90;;;25.10;18.70;;;;;;10398692;28;20233;-71
2021/03/31 14:24:32;;;;;;;8.40;6.60;;;25.10;18.60;;;;;;10405561;28;20237;-71
2021/03/31 14:29:54;;;;;;;6.00;5.40;;;25.20;18.60;;;;;;10397848;28;20230;-71
2021/03/31 14:34:57;;;;;;;8.30;5.73;;;25.20;18.70;;;;;;10403638;28;20692;-71
2021/03/31 14:40:20;;;;;;;6.37;5.60;;;25.20;18.50;;;;;;10399751;28;20584;-71
2021/03/31 14:45:22;;;;;;;6.83;5.53;;;25.20;18.30;;;;;;10409018;28;20229;-71
2021/03/31 14:50:28;;;;;;;6.33;5.30;;;25.20;17.90;;;;;;10406845;28;20659;-71
2021/03/31 14:56:23;;;;;;;6.40;5.67;;;25.20;17.50;;;;;;10408777;28;20230;-71
2021/03/31 15:01:16;;;;;;;9.60;5.87;;;25.20;17.50;;;;;;10395120;28;20232;-71
2021/03/31 15:06:19;;;;;;;9.73;6.23;;;25.20;17.60;;;;;;10399181;28;20261;-71
2021/03/31 15:11:21;;;;;;;7.20;5.33;;;25.20;17.10;;;;;;10409872;28;20598;-70
2021/03/31 15:16:44;;;;;;;5.23;4.60;;;25.20;17.20;;;;;;10402483;28;20229;-73
2021/03/31 15:22:18;;;;;;;10.73;4.90;;;25.30;17.00;;;;;;10406302;28;20232;-70
2021/03/31 15:27:20;;;;;;;6.90;4.67;;;25.30;16.70;;;;;;10405152;28;20611;-71
2021/03/31 15:32:23;;;;;;;7.80;5.10;;;25.30;16.90;;;;;;10410689;28;20233;-70
2021/03/31 15:37:31;;;;;;;10.27;5.37;;;25.30;16.60;;;;;;10404208;28;20229;-76
2021/03/31 15:42:38;;;;;;;6.30;5.53;;;25.30;16.50;;;;;;10412643;28;20241;-73
2021/03/31 15:47:47;;;;;;;6.57;4.43;;;25.30;16.50;;;;;;10410434;28;20714;-74
2021/03/31 15:52:55;;;;;;;7.23;4.40;;;25.30;16.50;;;;;;10407587;28;20760;-73
2021/03/31 15:57:57;;;;;;;6.20;5.20;;;25.30;16.50;;;;;;10404941;28;20225;-71
2021/03/31 16:03:07;;;;;;;7.00;5.37;;;25.40;16.90;;;;;;10417112;28;20226;-71
2021/03/31 16:08:15;;;;;;;6.07;5.47;;;25.30;16.40;;;;;;10400437;28;20232;-73
2021/03/31 16:13:22;;;;;;;7.47;4.90;;;25.40;16.00;;;;;;10413281;28;20595;-71
2021/03/31 16:18:29;;;;;;;5.37;4.87;;;25.30;16.00;;;;;;10406241;28;20236;-71
2021/03/31 16:23:37;;;;;;;7.87;5.17;;;25.30;16.40;;;;;;10409680;28;20233;-73
2021/03/31 16:28:52;;;;;;;5.77;5.13;;;25.30;15.90;;;;;;10405715;28;20710;-73
2021/03/31 16:34:00;;;;;;;8.77;6.00;;;25.20;16.00;;;;;;10402218;28;20222;-73
2021/03/31 16:39:09;;;;;;;6.23;5.30;;;25.20;16.20;;;;;;10406409;28;20223;-72
2021/03/31 16:44:17;;;;;;;6.43;4.57;;;25.20;16.20;;;;;;10407034;28;20228;-72
2021/03/31 16:49:24;;;;;;;5.47;4.07;;;25.20;16.20;;;;;;10398591;28;20232;-72
2021/03/31 16:54:32;;;;;;;5.80;3.67;;;25.20;16.40;;;;;;10412220;28;20232;-72
2021/03/31 16:59:39;;;;;;;5.23;3.03;;;25.20;16.30;;;;;;10417609;28;20230;-72
2021/03/31 17:04:46;;;;;;;4.23;3.80;;;25.20;16.70;;;;;;10411438;28;20221;-72
2021/03/31 17:09:54;;;;;;;6.50;3.77;;;25.10;17.60;;;;;;10410005;28;20221;-72
2021/03/31 17:15:02;;;;;;;5.60;3.87;;;25.00;17.20;;;;;;10406857;28;20225;-72
2021/03/31 17:20:10;;;;;;;6.17;3.60;;;24.90;17.50;;;;;;10410421;28;20689;-72
2021/03/31 17:25:18;;;;;;;4.07;3.20;;;24.80;17.50;;;;;;10405376;28;20234;-72
2021/03/31 17:30:26;;;;;;;4.60;3.33;;;24.70;17.80;;;;;;10410423;28;20218;-72
2021/03/31 17:35:34;;;;;;;4.23;3.30;;;24.50;17.80;;;;;;10408466;28;20236;-72
2021/03/31 17:40:43;;;;;;;3.60;3.07;;;24.40;17.80;;;;;;10408108;28;20236;-73
2021/03/31 17:45:50;;;;;;;3.83;2.97;;;24.30;18.00;;;;;;10407188;28;20234;-73
2021/03/31 17:51:00;;;;;;;4.13;2.80;;;24.10;17.90;;;;;;10407380;28;20224;-72
2021/03/31 17:56:08;;;;;;;4.40;3.17;;;24.00;17.90;;;;;;10403997;28;20221;-72
2021/03/31 18:01:15;;;;;;;4.57;2.43;;;23.70;17.70;;;;;;10403791;28;20615;-71
2021/03/31 18:06:22;;;;;;;2.97;2.43;;;23.50;17.70;;;;;;10412603;28;20229;-72
2021/03/31 18:11:30;;;;;;;4.77;2.90;;;23.30;18.00;;;;;;10402161;28;20602;-72
2021/03/31 18:16:32;;;;;;;4.37;3.03;;;23.20;18.30;;;;;;10406084;28;20240;-72
2021/03/31 18:21:39;;;;;;;5.37;4.87;;;23.00;18.20;;;;;;10403827;28;20229;-72
2021/03/31 18:26:42;;;;;;;6.57;4.80;;;22.80;18.40;;;;;;10412887;28;20240;-72
2021/03/31 18:31:49;;;;;;;6.77;5.40;;;22.60;18.70;;;;;;10407898;28;20602;-72
2021/03/31 18:36:56;;;;;;;13.47;8.40;;;22.40;18.60;;;;;;10404899;28;20308;-73
2021/03/31 18:42:09;;;;;;;7.13;6.43;;;22.20;18.80;;;;;;10399025;28;20214;-72
2021/03/31 18:47:17;;;;;;;5.17;4.43;;;21.90;19.00;;;;;;10396274;28;20229;-73
2021/03/31 18:52:24;;;;;;;5.50;5.00;;;21.70;19.00;;;;;;10395095;28;20227;-73
2021/03/31 18:57:32;;;;;;;6.33;4.90;;;21.50;19.10;;;;;;10403676;28;20712;-74
2021/03/31 19:02:34;;;;;;;4.13;3.80;;;21.30;19.30;;;;;;10401881;28;20234;-74
2021/03/31 19:07:41;;;;;;;6.73;4.50;;;21.00;19.20;;;;;;10400640;28;20237;-74
2021/03/31 19:12:50;;;;;;;6.87;4.83;;;20.80;19.50;;;;;;10407675;28;20229;-73
2021/03/31 19:17:57;;;;;;;4.73;4.33;;;20.60;19.80;;;;;;10402023;28;20216;-73
2021/03/31 19:23:04;;;;;;;8.63;5.70;;;20.30;19.60;;;;;;10399225;28;20605;-72
2021/03/31 19:28:13;;;;;;;7.27;5.93;;;20.10;20.00;;;;;;10400109;28;20225;-72
2021/03/31 19:33:16;;;;;;;10.10;6.10;;;19.80;20.10;;;;;;10404315;28;20221;-72
2021/03/31 19:38:23;;;;;;;7.33;5.93;;;19.60;20.20;;;;;;10406406;28;20226;-72
2021/03/31 19:43:32;;;;;;;7.43;5.77;;;19.30;20.40;;;;;;10409260;28;20856;-73
2021/03/31 19:48:39;;;;;;;8.10;6.67;;;19.10;20.80;;;;;;10407516;28;20603;-72
2021/03/31 19:53:46;;;;;;;6.33;5.73;;;18.90;20.70;;;;;;10405764;28;20241;-72
2021/03/31 19:58:55;;;;;;;8.47;6.40;;;18.70;20.90;;;;;;10402367;28;20690;-72
2021/03/31 20:04:03;;;;;;;10.60;7.60;;;18.50;21.40;;;;;;10397079;28;20682;-71
2021/03/31 20:09:10;;;;;;;10.10;6.83;;;18.50;21.40;;;;;;10402486;28;20228;-72
2021/03/31 20:14:18;;;;;;;10.10;6.90;;;18.30;21.40;;;;;;10401453;28;20744;-72
2021/03/31 20:19:25;;;;;;;10.80;7.13;;;18.10;21.70;;;;;;10394753;28;20279;-72
2021/03/31 20:24:32;;;;;;;10.83;7.40;;;17.80;21.60;;;;;;10398171;28;20238;-72
2021/03/31 20:29:42;;;;;;;9.43;7.30;;;17.50;21.80;;;;;;10405009;28;20922;-72
2021/03/31 20:34:51;;;;;;;6.53;5.83;;;17.30;22.20;;;;;;10402954;28;20225;-72
2021/03/31 20:39:59;;;;;;;6.80;6.10;;;17.30;22.20;;;;;;10404989;28;20229;-72
2021/03/31 20:45:08;;;;;;;9.37;5.83;;;17.30;22.50;;;;;;10404800;28;20232;-72
2021/03/31 20:50:16;;;;;;;7.27;5.90;;;17.30;22.90;;;;;;10400840;28;20233;-72
2021/03/31 20:55:23;;;;;;;6.50;5.80;;;17.30;22.60;;;;;;10405127;28;20748;-72
2021/03/31 21:00:31;;;;;;;8.60;7.03;;;17.30;22.50;;;;;;10405500;28;20784;-72
2021/03/31 21:05:38;;;;;;;9.10;6.93;;;17.20;22.80;;;;;;10398715;28;20217;-72
2021/03/31 21:10:45;;;;;;;7.47;6.53;;;17.20;22.50;;;;;;10403691;28;20222;-72
2021/03/31 21:15:53;;;;;;;6.33;5.57;;;17.20;22.60;;;;;;10401434;28;20240;-72
2021/03/31 21:21:00;;;;;;;9.00;6.37;;;17.10;22.90;;;;;;10404701;28;20232;-72
2021/03/31 21:26:07;;;;;;;9.17;6.20;;;17.00;22.80;;;;;;10401012;28;20229;-72
2021/03/31 21:31:11;;;;;;;8.23;6.47;;;16.90;22.80;;;;;;10409317;28;20210;-72
2021/03/31 21:36:18;;;;;;;7.13;6.23;;;16.80;23.10;;;;;;10406833;28;20248;-73
2021/03/31 21:41:25;;;;;;;8.37;6.10;;;16.70;23.10;;;;;;10403002;28;20582;-72
2021/03/31 21:46:33;;;;;;;7.97;7.20;;;16.60;23.00;;;;;;10407603;28;20234;-72
2021/03/31 21:51:35;;;;;;;7.30;6.13;;;16.50;22.90;;;;;;10410375;28;20599;-72
2021/03/31 21:56:38;;;;;;;6.33;5.57;;;16.40;22.90;;;;;;10412486;28;20318;-72
2021/03/31 22:01:41;;;;;;;7.67;6.53;;;16.20;22.70;;;;;;10406537;28;20285;-73
2021/03/31 22:06:43;;;;;;;9.33;6.60;;;16.10;23.10;;;;;;10412463;28;20706;-73
2021/03/31 22:11:46;;;;;;;7.37;6.07;;;16.00;23.20;;;;;;10411114;28;20749;-73
2021/03/31 22:16:49;;;;;;;6.70;6.03;;;16.00;23.30;;;;;;10409100;28;20668;-73
2021/03/31 22:21:51;;;;;;;8.33;6.63;;;15.90;23.40;;;;;;10405237;28;20317;-73
2021/03/31 22:26:53;;;;;;;8.90;6.93;;;15.90;23.40;;;;;;10401454;28;20261;-73
2021/03/31 22:31:56;;;;;;;6.73;6.03;;;15.70;23.40;;;;;;10412979;28;20672;-72
2021/03/31 22:36:58;;;;;;;11.37;7.57;;;15.60;23.60;;;;;;10409263;28;20469;-72
2021/03/31 22:42:02;;;;;;;8.20;6.90;;;15.40;23.80;;;;;;10406865;28;20316;-72
2021/03/31 22:47:06;;;;;;;9.20;7.70;;;15.30;23.90;;;;;;10412550;28;20284;-72
2021/03/31 22:52:08;;;;;;;7.67;6.60;;;15.30;24.20;;;;;;10408010;28;20662;-72
2021/03/31 22:57:11;;;;;;;9.33;7.03;;;15.20;23.90;;;;;;10404314;28;20237;-72
2021/03/31 23:02:14;;;;;;;10.33;7.80;;;15.10;24.00;;;;;;10404495;28;20866;-72
2021/03/31 23:07:16;;;;;;;13.23;8.20;;;15.00;24.20;;;;;;10407070;28;20784;-72
2021/03/31 23:12:18;;;;;;;10.93;8.03;;;14.80;24.10;;;;;;10406984;28;20228;-72
2021/03/31 23:17:26;;;;;;;9.03;7.20;;;14.60;24.30;;;;;;10404806;28;20233;-72
2021/03/31 23:22:29;;;;;;;8.13;7.30;;;14.60;24.70;;;;;;10406741;28;20239;-72
2021/03/31 23:27:33;;;;;;;9.67;7.43;;;14.50;24.60;;;;;;10406748;28;20261;-72
2021/03/31 23:32:37;;;;;;;10.70;7.90;;;14.50;24.60;;;;;;10412469;28;20225;-72
2021/03/31 23:37:40;;;;;;;10.13;7.73;;;14.50;24.90;;;;;;10406219;28;20702;-72
2021/03/31 23:42:44;;;;;;;10.93;8.10;;;14.50;24.70;;;;;;10406617;28;20333;-72
2021/03/31 23:47:47;;;;;;;9.10;8.20;;;14.40;24.70;;;;;;10406178;28;20226;-72
2021/03/31 23:52:50;;;;;;;9.37;8.13;;;14.30;24.70;;;;;;10408454;28;20284;-72
2021/03/31 23:57:52;;;;;;;9.23;8.23;;;14.10;24.70;;;;;;10412167;28;20316;-72
